If you wish to contribute or participate in the discussions about articles you are invited to join SKYbrary as a registered user

 Actions

Ain el Beida Airport

From SKYbrary Wiki

DAUU /
Revision as of 13:14, 20 March 2015 by Timo.Kouwenhoven (talk | contribs) (DA Aiports CSV import)
(diff) ← Older revision | Latest revision (diff) | Newer revision → (diff)
Airport
ICAO: DAUU – IATA: OGX
Summary
Name Ain el Beida Airport
Region Africa
Territory Algeria DZ.gif
Location , Ouargla
Serving Ouargla
Elevation 149.962 m
492 ft
492 ft149.962 m
Type medium airport
Coordinates 31° 55' 2.00" N, 5° 24' 46.00" E
Runways
Designator Length Width Surface ROPS
2/20 3000 m9,842.52 ft
45 m147.638 ft
ASP /
18/36 3100 m10,170.604 ft
45 m147.638 ft
ASP /


METAR
Observation DAUU 221800Z 36010KT 9999 FEW046 16/03 Q1017
Station Ouargla
Date/Time 22 March 2019 18:00:00
Wind direction 360°
Wind speed 10 kts
Lowest cloud amount few clouds
Temperature 16°C
Dew point 3°C
Humidity 41%
QNH 1017 hPa
Weather condition n/a